createdAt,value
2022-08-29T00:01:55.669Z,100514.66
2022-08-29T00:04:57.156Z,100509.97
2022-08-29T00:08:01.138Z,100508.22
2022-08-29T00:11:02.963Z,100505.94
2022-08-29T00:14:04.472Z,100506.72
2022-08-29T00:17:05.896Z,100511.31
2022-08-29T00:20:13.521Z,100513.88
2022-08-29T00:23:15.347Z,100514.41
2022-08-29T00:26:16.899Z,100515.00
2022-08-29T00:29:18.410Z,100511.56
2022-08-29T00:32:19.864Z,100514.63
2022-08-29T00:35:27.461Z,100514.34
2022-08-29T00:38:28.934Z,100517.50
2022-08-29T00:41:30.421Z,100522.22
2022-08-29T00:44:32.149Z,100520.75
2022-08-29T00:47:37.325Z,100526.50
2022-08-29T00:50:43.539Z,100527.22
2022-08-29T00:53:48.021Z,100523.41
2022-08-29T00:56:52.217Z,100530.78
2022-08-29T00:59:53.988Z,100521.13
2022-08-29T01:02:55.490Z,100527.28
2022-08-29T01:05:57.088Z,100522.16
2022-08-29T01:08:59.335Z,100524.81
2022-08-29T01:12:16.176Z,100531.69
2022-08-29T01:15:18.022Z,100523.66
2022-08-29T01:18:22.881Z,100522.09
2022-08-29T01:21:47.342Z,100529.13
2022-08-29T01:24:52.327Z,100532.84
2022-08-29T01:28:09.698Z,100536.69
2022-08-29T01:31:37.693Z,100530.69
2022-08-29T01:34:40.065Z,100532.88
2022-08-29T01:37:43.290Z,100530.69
2022-08-29T01:40:44.747Z,100531.50
2022-08-29T01:43:51.877Z,100540.94
2022-08-29T01:47:01.791Z,100542.69
2022-08-29T01:50:08.633Z,100551.69
2022-08-29T01:53:10.217Z,100554.00
2022-08-29T01:56:25.725Z,100563.91
2022-08-29T01:59:28.757Z,100553.75
2022-08-29T02:02:30.368Z,100546.97
2022-08-29T02:05:31.854Z,100553.97
2022-08-29T02:08:33.339Z,100553.44
2022-08-29T02:11:39.611Z,100557.69
2022-08-29T02:14:41.119Z,100558.84
2022-08-29T02:17:42.535Z,100568.88
2022-08-29T02:20:45.346Z,100566.41
2022-08-29T02:23:49.867Z,100557.19
2022-08-29T02:26:51.524Z,100569.31
2022-08-29T02:29:53.031Z,100565.94
2022-08-29T02:32:54.860Z,100573.22
2022-08-29T02:35:56.446Z,100567.81
2022-08-29T02:38:59.014Z,100579.06
2022-08-29T02:42:00.751Z,100571.25
2022-08-29T02:45:02.647Z,100565.59
2022-08-29T02:48:04.762Z,100560.06
2022-08-29T02:51:06.587Z,100553.25
2022-08-29T02:54:08.102Z,100556.63
2022-08-29T02:57:09.647Z,100558.28
2022-08-29T03:00:16.433Z,100567.56
2022-08-29T03:03:18.174Z,100559.06
2022-08-29T03:06:20.056Z,100565.53
2022-08-29T03:09:21.564Z,100578.31
2022-08-29T03:12:23.582Z,100565.91
2022-08-29T03:15:25.681Z,100568.78
2022-08-29T03:18:27.207Z,100568.25
2022-08-29T03:21:28.655Z,100568.50
2022-08-29T03:24:30.187Z,100573.53
2022-08-29T03:27:32.847Z,100568.06
2022-08-29T03:30:35.135Z,100567.38
2022-08-29T03:33:37.165Z,100564.41
2022-08-29T03:36:39.372Z,100571.97
2022-08-29T03:39:41.053Z,100562.84
2022-08-29T03:42:42.970Z,100567.56
2022-08-29T03:45:44.747Z,100562.91
2022-08-29T03:48:46.187Z,100574.69
2022-08-29T03:51:49.938Z,100561.25
2022-08-29T03:54:51.426Z,100563.75
2022-08-29T03:57:55.061Z,100562.78
2022-08-29T04:00:56.531Z,100556.19
2022-08-29T04:03:58.602Z,100560.56
2022-08-29T04:07:01.380Z,100562.22
2022-08-29T04:10:05.283Z,100556.38
2022-08-29T04:13:09.222Z,100554.81
2022-08-29T04:16:13.586Z,100556.25
2022-08-29T04:19:15.441Z,100555.78
2022-08-29T04:22:16.860Z,100554.44
2022-08-29T04:25:18.391Z,100563.19
2022-08-29T04:28:19.943Z,100562.28
2022-08-29T04:31:22.159Z,100565.88
2022-08-29T04:34:23.656Z,100567.97
2022-08-29T04:37:25.148Z,100564.09
2022-08-29T04:40:27.042Z,100561.53
2022-08-29T04:43:28.533Z,100570.19
2022-08-29T04:46:30.736Z,100570.50
2022-08-29T04:49:32.330Z,100565.72
2022-08-29T04:52:33.795Z,100576.16
2022-08-29T04:55:35.242Z,100575.75
2022-08-29T04:58:42.268Z,100574.94
2022-08-29T05:01:45.919Z,100577.56
2022-08-29T05:04:52.398Z,100582.31
2022-08-29T05:07:53.959Z,100586.50
2022-08-29T05:10:55.878Z,100577.03
2022-08-29T05:13:58.765Z,100581.44
2022-08-29T05:17:00.230Z,100589.91
2022-08-29T05:20:02.502Z,100591.56
2022-08-29T05:23:03.948Z,100596.13
2022-08-29T05:26:05.649Z,100605.34
2022-08-29T05:29:09.373Z,100600.19
2022-08-29T05:32:14.559Z,100605.06
2022-08-29T05:35:16.010Z,100602.69
2022-08-29T05:38:18.010Z,100602.66
2022-08-29T05:41:19.556Z,100603.00
2022-08-29T05:44:21.250Z,100610.41
2022-08-29T05:47:22.893Z,100612.56
2022-08-29T05:50:24.332Z,100616.69
2022-08-29T05:53:26.779Z,100607.38
2022-08-29T05:56:30.274Z,100604.97
2022-08-29T05:59:31.737Z,100608.19
2022-08-29T06:02:33.966Z,100603.31
2022-08-29T06:05:35.724Z,100608.19
2022-08-29T06:08:37.179Z,100605.34
2022-08-29T06:11:39.181Z,100600.81
2022-08-29T06:14:41.592Z,100611.31
2022-08-29T06:17:51.812Z,100609.38
2022-08-29T06:20:53.256Z,100612.16
2022-08-29T06:23:54.984Z,100615.34
2022-08-29T06:26:56.711Z,100620.84
2022-08-29T06:30:01.744Z,100621.09
2022-08-29T06:33:03.648Z,100624.44
2022-08-29T06:36:07.434Z,100616.63
2022-08-29T06:39:11.391Z,100623.63
2022-08-29T06:42:12.838Z,100623.84
2022-08-29T06:45:14.369Z,100627.22
2022-08-29T06:48:15.927Z,100627.09
2022-08-29T06:51:17.590Z,100621.44
2022-08-29T06:54:22.004Z,100638.50
2022-08-29T06:57:23.442Z,100631.28
2022-08-29T07:00:25.004Z,100632.41
2022-08-29T07:03:27.095Z,100619.88
2022-08-29T07:06:29.388Z,100622.81
2022-08-29T07:09:32.265Z,100625.44
2022-08-29T07:12:33.816Z,100633.72
2022-08-29T07:15:35.332Z,100633.50
2022-08-29T07:18:37.736Z,100644.56
2022-08-29T07:21:39.784Z,100638.66
2022-08-29T07:24:41.308Z,100641.56
2022-08-29T07:27:42.759Z,100648.66
2022-08-29T07:30:44.358Z,100656.94
2022-08-29T07:33:46.206Z,100653.78
2022-08-29T07:36:48.067Z,100654.81
2022-08-29T07:39:49.534Z,100656.59
2022-08-29T07:42:51.056Z,100650.22
2022-08-29T07:45:53.069Z,100648.72
2022-08-29T07:48:54.950Z,100652.25
2022-08-29T07:51:56.460Z,100654.41
2022-08-29T07:54:57.969Z,100659.66
2022-08-29T07:57:59.485Z,100663.53
2022-08-29T08:01:01.033Z,100666.13
2022-08-29T08:04:03.176Z,100667.19
2022-08-29T08:07:04.980Z,100662.19
2022-08-29T08:10:17.463Z,100660.31
2022-08-29T08:13:19.612Z,100670.53
2022-08-29T08:16:23.545Z,100661.69
2022-08-29T08:19:25.329Z,100663.28
2022-08-29T08:22:26.823Z,100667.09
2022-08-29T08:25:28.342Z,100673.63
2022-08-29T08:28:30.642Z,100673.44
2022-08-29T08:31:32.315Z,100671.78
2022-08-29T08:34:35.754Z,100664.13
2022-08-29T08:37:37.506Z,100657.50
2022-08-29T08:41:17.792Z,100663.53
2022-08-29T08:44:22.381Z,100665.88
2022-08-29T08:47:33.370Z,100666.19
2022-08-29T08:51:03.288Z,100665.50
2022-08-29T08:54:12.372Z,100661.25
2022-08-29T08:57:14.477Z,100664.59
2022-08-29T09:00:16.008Z,100668.56
2022-08-29T09:03:56.027Z,100665.91
2022-08-29T09:07:00.707Z,100667.16
2022-08-29T09:10:11.341Z,100663.56
2022-08-29T09:13:40.314Z,100655.53
2022-08-29T09:16:49.312Z,100659.03
2022-08-29T09:19:51.832Z,100668.03
2022-08-29T09:23:01.437Z,100667.34
2022-08-29T09:26:02.886Z,100667.25
2022-08-29T09:29:09.077Z,100678.97
2022-08-29T09:32:16.508Z,100680.34
2022-08-29T09:35:24.752Z,100684.03
2022-08-29T09:38:28.063Z,100671.47
2022-08-29T09:41:30.801Z,100673.59
2022-08-29T09:44:35.219Z,100674.94
2022-08-29T09:47:36.855Z,100676.88
2022-08-29T09:50:38.389Z,100671.03
2022-08-29T09:53:40.146Z,100674.56
2022-08-29T09:56:55.502Z,100666.50
2022-08-29T10:00:16.003Z,100663.53
2022-08-29T10:03:22.604Z,100661.53
2022-08-29T10:06:28.836Z,100659.75
2022-08-29T10:09:30.373Z,100651.00
2022-08-29T10:12:40.143Z,100651.38
2022-08-29T10:15:58.421Z,100650.03
2022-08-29T10:19:10.084Z,100653.25
2022-08-29T10:22:25.369Z,100655.63
2022-08-29T10:25:35.548Z,100650.28
2022-08-29T10:28:44.180Z,100655.78
2022-08-29T10:31:53.390Z,100647.53
2022-08-29T10:35:12.412Z,100651.91
2022-08-29T10:38:44.276Z,100638.84
2022-08-29T10:41:56.687Z,100641.72
2022-08-29T10:45:06.948Z,100632.03
2022-08-29T10:48:30.429Z,100633.28
2022-08-29T10:51:43.513Z,100633.91
2022-08-29T10:55:00.244Z,100619.25
2022-08-29T10:58:35.956Z,100617.69
2022-08-29T11:01:45.566Z,100622.59
2022-08-29T11:04:56.945Z,100628.44
2022-08-29T11:08:09.625Z,100619.88
2022-08-29T11:11:17.221Z,100615.50
2022-08-29T11:14:26.644Z,100602.66
2022-08-29T11:17:35.835Z,100609.28
2022-08-29T11:20:45.281Z,100601.59
2022-08-29T11:23:48.144Z,100604.88
2022-08-29T11:27:11.894Z,100598.44
2022-08-29T11:30:22.971Z,100595.03
2022-08-29T11:33:45.768Z,100589.56
2022-08-29T11:37:21.443Z,100590.81
2022-08-29T11:41:26.344Z,100586.72
2022-08-29T11:44:29.542Z,100584.72
2022-08-29T11:47:46.429Z,100582.03
2022-08-29T11:50:49.135Z,100585.41
2022-08-29T11:53:50.909Z,100588.00
2022-08-29T11:57:12.561Z,100577.63
2022-08-29T12:00:32.496Z,100563.09
2022-08-29T12:03:34.473Z,100569.88
2022-08-29T12:07:01.340Z,100569.38
2022-08-29T12:10:23.946Z,100565.97
2022-08-29T12:13:44.045Z,100569.84
2022-08-29T12:16:51.169Z,100568.25
2022-08-29T12:19:54.189Z,100566.34
2022-08-29T12:23:01.443Z,100557.59
2022-08-29T12:26:22.851Z,100569.03
2022-08-29T12:29:41.098Z,100560.84
2022-08-29T12:33:12.182Z,100567.03
2022-08-29T12:37:13.486Z,100548.41
2022-08-29T12:40:40.655Z,100544.63
2022-08-29T12:43:46.713Z,100540.84
2022-08-29T12:46:51.570Z,100543.47
2022-08-29T12:50:00.981Z,100540.66
2022-08-29T12:53:20.430Z,100535.94
2022-08-29T12:56:23.278Z,100522.56
2022-08-29T12:59:24.843Z,100526.47
2022-08-29T13:02:37.398Z,100523.13
2022-08-29T13:05:40.490Z,100514.00
2022-08-29T13:08:42.602Z,100511.22
2022-08-29T13:11:44.006Z,100518.22
2022-08-29T13:14:51.315Z,100514.19
2022-08-29T13:17:53.676Z,100510.91
2022-08-29T13:21:10.856Z,100500.22
2022-08-29T13:24:20.746Z,100508.28
2022-08-29T13:27:22.284Z,100498.06
2022-08-29T13:30:24.790Z,100501.75
2022-08-29T13:33:35.594Z,100496.03
2022-08-29T13:36:47.497Z,100497.63
2022-08-29T13:39:49.028Z,100497.59
2022-08-29T13:42:50.614Z,100482.81
2022-08-29T13:46:15.121Z,100499.75
2022-08-29T13:49:22.556Z,100495.56
2022-08-29T13:52:24.236Z,100502.47
2022-08-29T13:55:34.548Z,100492.16
2022-08-29T13:58:36.017Z,100491.13
2022-08-29T14:04:59.850Z,100487.28
2022-08-29T14:08:01.419Z,100486.34
2022-08-29T14:11:02.908Z,100478.69
2022-08-29T14:14:07.868Z,100471.34
2022-08-29T14:17:10.046Z,100471.31
2022-08-29T14:20:18.797Z,100471.78
2022-08-29T14:23:23.241Z,100477.88
2022-08-29T14:26:25.660Z,100476.31
2022-08-29T14:29:27.428Z,100467.72
2022-08-29T14:32:32.346Z,100466.22
2022-08-29T14:35:34.879Z,100459.72
2022-08-29T14:38:36.410Z,100463.25
2022-08-29T14:41:37.889Z,100472.88
2022-08-29T14:44:39.411Z,100463.50
2022-08-29T14:47:40.999Z,100467.19
2022-08-29T14:50:42.471Z,100457.38
2022-08-29T14:53:48.289Z,100459.34
2022-08-29T14:56:55.612Z,100445.66
2022-08-29T14:59:57.188Z,100461.56
2022-08-29T15:02:59.961Z,100458.78
2022-08-29T15:06:02.649Z,100447.31
2022-08-29T15:09:04.310Z,100442.47
2022-08-29T15:12:06.230Z,100446.25
2022-08-29T15:15:08.716Z,100448.50
2022-08-29T15:18:23.510Z,100443.91
2022-08-29T15:21:32.423Z,100439.47
2022-08-29T15:24:34.024Z,100432.78
2022-08-29T15:27:35.483Z,100437.81
2022-08-29T15:30:37.124Z,100430.94
2022-08-29T15:33:39.801Z,100437.19
2022-08-29T15:36:41.212Z,100431.13
2022-08-29T15:39:42.732Z,100433.44
2022-08-29T15:42:45.229Z,100426.25
2022-08-29T15:45:46.729Z,100424.59
2022-08-29T15:48:48.289Z,100414.13
2022-08-29T15:51:53.040Z,100419.81
2022-08-29T15:54:54.877Z,100421.66
2022-08-29T15:57:56.321Z,100411.91
2022-08-29T16:00:58.571Z,100421.91
2022-08-29T16:04:00.065Z,100426.72
2022-08-29T16:07:01.847Z,100419.38
2022-08-29T16:10:04.918Z,100416.91
2022-08-29T16:13:12.757Z,100424.00
2022-08-29T16:16:14.885Z,100415.06
2022-08-29T16:19:17.384Z,100418.19
2022-08-29T16:22:18.940Z,100413.00
2022-08-29T16:25:21.373Z,100417.03
2022-08-29T16:28:25.672Z,100416.16
2022-08-29T16:31:27.337Z,100409.38
2022-08-29T16:34:29.615Z,100411.44
2022-08-29T16:37:31.165Z,100416.34
2022-08-29T16:40:32.967Z,100407.13
2022-08-29T16:43:36.866Z,100406.84
2022-08-29T16:46:38.523Z,100407.75
2022-08-29T16:49:40.248Z,100404.97
2022-08-29T16:52:41.840Z,100407.56
2022-08-29T16:55:43.455Z,100401.91
2022-08-29T16:58:59.488Z,100407.19
2022-08-29T17:02:01.009Z,100405.69
2022-08-29T17:05:03.389Z,100406.91
2022-08-29T17:08:04.951Z,100403.06
2022-08-29T17:11:07.250Z,100398.34
2022-08-29T17:14:09.602Z,100393.63
2022-08-29T17:17:12.589Z,100385.00
2022-08-29T17:20:14.923Z,100387.56
2022-08-29T17:23:16.513Z,100389.69
2022-08-29T17:26:18.304Z,100389.25
2022-08-29T17:29:19.783Z,100389.72
2022-08-29T17:32:21.260Z,100410.13
2022-08-29T17:35:22.770Z,100410.13
2022-08-29T17:38:25.139Z,100413.25
2022-08-29T17:41:27.689Z,100412.00
2022-08-29T17:44:32.917Z,100408.84
2022-08-29T17:47:34.451Z,100407.59
2022-08-29T17:50:36.246Z,100418.19
2022-08-29T17:53:39.579Z,100408.69
2022-08-29T17:56:48.753Z,100410.22
2022-08-29T17:59:50.206Z,100414.00
2022-08-29T18:02:52.463Z,100411.78
2022-08-29T18:05:53.923Z,100419.81
2022-08-29T18:08:55.403Z,100415.13
2022-08-29T18:12:00.490Z,100416.81
2022-08-29T18:15:03.622Z,100417.00
2022-08-29T18:18:05.379Z,100423.66
2022-08-29T18:21:06.976Z,100432.19
2022-08-29T18:24:11.069Z,100432.72
2022-08-29T18:27:12.544Z,100438.19
2022-08-29T18:30:15.379Z,100441.22
2022-08-29T18:33:16.888Z,100437.44
2022-08-29T18:36:19.852Z,100436.69
2022-08-29T18:39:21.402Z,100435.50
2022-08-29T18:42:39.535Z,100438.63
2022-08-29T18:45:42.952Z,100440.06
2022-08-29T18:48:44.889Z,100445.56
2022-08-29T18:51:46.854Z,100450.03
2022-08-29T18:54:48.397Z,100452.38
2022-08-29T18:57:50.395Z,100459.72
2022-08-29T19:00:52.601Z,100462.25
2022-08-29T19:03:58.966Z,100464.13
2022-08-29T19:07:00.397Z,100465.66
2022-08-29T19:10:01.859Z,100474.25
2022-08-29T19:13:07.497Z,100486.22
2022-08-29T19:16:09.864Z,100476.97
2022-08-29T19:19:13.280Z,100476.56
2022-08-29T19:22:15.913Z,100474.31
2022-08-29T19:25:17.513Z,100474.31
2022-08-29T19:28:19.783Z,100472.00
2022-08-29T19:31:22.761Z,100479.94
2022-08-29T19:34:24.332Z,100483.44
2022-08-29T19:37:26.487Z,100482.03
2022-08-29T19:40:28.450Z,100484.78
2022-08-29T19:43:33.439Z,100471.53
2022-08-29T19:46:36.029Z,100471.47
2022-08-29T19:49:40.104Z,100474.50
2022-08-29T19:52:43.638Z,100476.22
2022-08-29T19:55:45.428Z,100481.38
2022-08-29T19:58:46.994Z,100482.91
2022-08-29T20:01:51.058Z,100487.19
2022-08-29T20:04:52.909Z,100476.84
2022-08-29T20:07:54.438Z,100482.41
2022-08-29T20:10:56.030Z,100478.84
2022-08-29T20:13:58.092Z,100489.88
2022-08-29T20:16:59.587Z,100486.56
2022-08-29T20:20:01.300Z,100490.84
2022-08-29T20:23:04.323Z,100491.06
2022-08-29T20:26:06.920Z,100495.38
2022-08-29T20:29:10.546Z,100492.28
2022-08-29T20:32:12.114Z,100493.16
2022-08-29T20:35:13.631Z,100493.94
2022-08-29T20:38:15.402Z,100493.59
2022-08-29T20:41:17.148Z,100491.78
2022-08-29T20:44:24.989Z,100492.63
2022-08-29T20:47:27.260Z,100485.19
2022-08-29T20:53:33.469Z,100486.13
2022-08-29T20:56:35.150Z,100498.00
2022-08-29T20:59:41.038Z,100488.63
2022-08-29T21:03:01.152Z,100494.00
2022-08-29T21:06:03.608Z,100496.00
2022-08-29T21:09:05.802Z,100500.66
2022-08-29T21:12:07.980Z,100502.28
2022-08-29T21:15:09.537Z,100498.50
2022-08-29T21:18:12.869Z,100513.19
2022-08-29T21:21:14.384Z,100513.19
2022-08-29T21:24:15.905Z,100510.97
2022-08-29T21:27:18.035Z,100512.19
2022-08-29T21:30:19.806Z,100515.72
2022-08-29T21:33:21.650Z,100502.34
2022-08-29T21:36:26.008Z,100504.16
2022-08-29T21:39:28.444Z,100509.34
2022-08-29T21:42:30.477Z,100514.09
2022-08-29T21:45:34.227Z,100502.81
2022-08-29T21:48:35.661Z,100509.44
2022-08-29T21:51:37.718Z,100507.84
2022-08-29T21:54:39.359Z,100508.69
2022-08-29T21:57:52.899Z,100496.91
2022-08-29T22:00:54.303Z,100498.97
2022-08-29T22:03:58.754Z,100504.47
2022-08-29T22:07:00.262Z,100505.91
2022-08-29T22:10:01.794Z,100501.81
2022-08-29T22:13:06.557Z,100507.81
2022-08-29T22:16:27.184Z,100500.81
2022-08-29T22:19:28.700Z,100501.63
2022-08-29T22:22:30.160Z,100509.72
2022-08-29T22:25:32.109Z,100497.34
2022-08-29T22:28:33.543Z,100507.59
2022-08-29T22:31:35.188Z,100504.16
2022-08-29T22:34:36.739Z,100509.34
2022-08-29T22:37:38.175Z,100515.00
2022-08-29T22:40:41.054Z,100510.28
2022-08-29T22:43:42.787Z,100513.50
2022-08-29T22:46:44.809Z,100507.09
2022-08-29T22:49:46.482Z,100513.78
2022-08-29T22:52:49.015Z,100507.56
2022-08-29T22:55:50.484Z,100505.09
2022-08-29T22:58:52.328Z,100512.28
2022-08-29T23:01:54.175Z,100499.59
2022-08-29T23:04:55.814Z,100502.59
2022-08-29T23:07:57.256Z,100503.13
2022-08-29T23:10:58.710Z,100498.22
2022-08-29T23:14:00.218Z,100498.44
2022-08-29T23:17:08.125Z,100501.13
2022-08-29T23:20:12.625Z,100496.53
2022-08-29T23:26:15.696Z,100488.00
2022-08-29T23:29:17.149Z,100492.00
2022-08-29T23:32:18.634Z,100494.75
2022-08-29T23:38:22.872Z,100498.38
2022-08-29T23:41:25.357Z,100494.94
2022-08-29T23:44:26.917Z,100491.75
2022-08-29T23:47:28.475Z,100493.38
2022-08-29T23:50:29.990Z,100500.56
2022-08-29T23:53:31.602Z,100485.50
2022-08-29T23:56:33.150Z,100494.47
